createdAt,value
2023-10-12T00:00:00.669Z,14.68
2023-10-12T00:02:28.962Z,13.77
2023-10-12T00:05:07.644Z,11.85
2023-10-12T00:07:36.060Z,16.02
2023-10-12T00:10:14.939Z,14.18
2023-10-12T00:12:48.042Z,10.55
2023-10-12T00:15:26.885Z,15.00
2023-10-12T00:17:59.819Z,12.43
2023-10-12T00:20:33.457Z,13.30
2023-10-12T00:23:12.021Z,14.70
2023-10-12T00:25:50.136Z,13.63
2023-10-12T00:28:20.785Z,11.93
2023-10-12T00:30:51.415Z,14.75
2023-10-12T00:33:20.138Z,12.25
2023-10-12T00:36:20.858Z,11.60
2023-10-12T00:38:57.517Z,13.88
2023-10-12T00:41:26.406Z,7.53
2023-10-12T00:44:08.277Z,8.50
2023-10-12T00:46:39.322Z,12.82
2023-10-12T00:49:23.754Z,11.30
2023-10-12T00:51:55.153Z,12.77
2023-10-12T00:54:38.311Z,13.75
2023-10-12T00:57:12.192Z,10.80
2023-10-12T00:59:40.610Z,13.63
2023-10-12T01:02:10.884Z,13.07
2023-10-12T01:04:43.091Z,16.27
2023-10-12T01:07:13.140Z,15.32
2023-10-12T01:09:40.937Z,16.80
2023-10-12T01:12:14.228Z,17.02
2023-10-12T01:14:48.349Z,14.32
2023-10-12T01:17:25.539Z,11.27
2023-10-12T01:19:53.584Z,12.60
2023-10-12T01:22:27.221Z,10.73
2023-10-12T01:24:55.786Z,12.05
2023-10-12T01:27:24.177Z,13.20
2023-10-12T01:29:55.576Z,12.73
2023-10-12T01:32:28.736Z,11.27
2023-10-12T01:35:05.207Z,9.70
2023-10-12T01:37:43.046Z,16.13
2023-10-12T01:40:13.766Z,12.32
2023-10-12T01:42:42.416Z,13.48
2023-10-12T01:45:24.756Z,30.33
2023-10-12T01:47:56.914Z,19.05
2023-10-12T01:50:29.502Z,13.50
2023-10-12T01:53:00.274Z,11.77
2023-10-12T01:55:31.943Z,11.95
2023-10-12T01:58:00.689Z,12.05
2023-10-12T02:00:29.205Z,9.70
2023-10-12T02:03:29.628Z,16.30
2023-10-12T02:06:00.288Z,13.45
2023-10-12T02:08:35.020Z,10.70
2023-10-12T02:11:26.090Z,12.00
2023-10-12T02:14:02.351Z,14.77
2023-10-12T02:16:33.500Z,12.55
2023-10-12T02:19:06.959Z,12.70
2023-10-12T02:21:38.996Z,9.73
2023-10-12T02:24:09.582Z,15.57
2023-10-12T02:26:53.579Z,13.10
2023-10-12T02:29:21.538Z,11.07
2023-10-12T02:31:51.386Z,9.25
2023-10-12T02:34:20.381Z,13.25
2023-10-12T02:37:02.420Z,14.48
2023-10-12T02:39:39.285Z,13.10
2023-10-12T02:42:10.722Z,14.98
2023-10-12T02:44:50.998Z,14.48
2023-10-12T02:47:39.158Z,10.27
2023-10-12T02:50:11.578Z,9.98
2023-10-12T02:52:39.956Z,13.13
2023-10-12T02:55:23.118Z,14.27
2023-10-12T02:57:55.756Z,11.43
2023-10-12T03:00:45.533Z,14.05
2023-10-12T03:03:27.509Z,13.50
2023-10-12T03:06:02.358Z,14.13
2023-10-12T03:08:32.091Z,9.93
2023-10-12T03:11:00.128Z,10.75
2023-10-12T03:13:36.007Z,13.18
2023-10-12T03:16:15.280Z,13.40
2023-10-12T03:18:44.265Z,12.50
2023-10-12T03:21:16.023Z,14.55
2023-10-12T03:23:47.583Z,12.98
2023-10-12T03:26:21.780Z,13.13
2023-10-12T03:28:51.706Z,12.70
2023-10-12T03:31:22.173Z,13.27
2023-10-12T03:33:57.617Z,18.17
2023-10-12T03:36:33.891Z,13.73
2023-10-12T03:39:13.586Z,12.70
2023-10-12T03:41:56.382Z,15.98
2023-10-12T03:44:43.380Z,13.85
2023-10-12T03:47:17.060Z,11.57
2023-10-12T03:49:54.636Z,14.10
2023-10-12T03:52:29.028Z,12.95
2023-10-12T03:55:11.302Z,13.88
2023-10-12T03:57:47.316Z,16.40
2023-10-12T04:00:15.166Z,15.32
2023-10-12T04:02:49.089Z,8.98
2023-10-12T04:05:33.566Z,11.38
2023-10-12T04:08:01.956Z,14.57
2023-10-12T04:10:47.840Z,12.73
2023-10-12T04:13:28.877Z,14.43
2023-10-12T04:16:06.182Z,12.68
2023-10-12T04:18:34.504Z,12.93
2023-10-12T04:21:04.953Z,13.18
2023-10-12T04:23:35.385Z,14.32
2023-10-12T04:26:15.686Z,11.40
2023-10-12T04:28:51.938Z,10.73
2023-10-12T04:31:33.001Z,10.48
2023-10-12T04:34:07.897Z,14.52
2023-10-12T04:36:40.461Z,16.42
2023-10-12T04:39:11.284Z,11.73
2023-10-12T04:41:39.681Z,8.97
2023-10-12T04:44:28.860Z,12.55
2023-10-12T04:47:04.734Z,9.85
2023-10-12T04:49:37.661Z,16.73
2023-10-12T04:52:14.009Z,11.80
2023-10-12T04:54:58.023Z,14.30
2023-10-12T04:57:39.607Z,18.30
2023-10-12T05:02:51.691Z,10.43
2023-10-12T05:05:23.393Z,11.50
2023-10-12T05:07:56.220Z,21.23
2023-10-12T05:10:28.514Z,9.43
2023-10-12T05:12:59.227Z,10.95
2023-10-12T05:15:29.083Z,11.80
2023-10-12T05:17:56.858Z,10.88
2023-10-12T05:20:25.790Z,13.48
2023-10-12T05:22:53.457Z,13.18
2023-10-12T05:25:21.125Z,18.10
2023-10-12T05:28:08.713Z,12.32
2023-10-12T05:30:39.398Z,15.52
2023-10-12T05:33:07.636Z,10.05
2023-10-12T05:35:51.382Z,13.88
2023-10-12T05:38:19.286Z,14.27
2023-10-12T05:40:56.947Z,11.40
2023-10-12T05:43:29.195Z,11.32
2023-10-12T05:46:02.395Z,10.95
2023-10-12T05:48:30.151Z,13.65
2023-10-12T05:50:57.718Z,13.40
2023-10-12T05:53:27.255Z,11.27
2023-10-12T05:55:58.001Z,25.80
2023-10-12T05:58:26.036Z,11.20
2023-10-12T06:00:55.180Z,10.95
2023-10-12T06:03:22.901Z,9.73
2023-10-12T06:05:53.129Z,10.85
2023-10-12T06:08:21.889Z,14.57
2023-10-12T06:10:49.473Z,14.55
2023-10-12T06:13:17.289Z,16.63
2023-10-12T06:15:51.054Z,17.25
2023-10-12T06:18:30.752Z,10.98
2023-10-12T06:21:07.871Z,13.27
2023-10-12T06:23:40.959Z,13.82
2023-10-12T06:26:17.807Z,10.60
2023-10-12T06:28:45.471Z,10.35
2023-10-12T06:31:15.323Z,12.48
2023-10-12T06:33:43.536Z,14.77
2023-10-12T06:36:18.034Z,20.70
2023-10-12T06:38:51.559Z,21.95
2023-10-12T06:41:34.503Z,11.18
2023-10-12T06:44:34.629Z,13.80
2023-10-12T06:47:22.345Z,23.02
2023-10-12T06:49:52.968Z,60.97
2023-10-12T06:52:20.872Z,57.60
2023-10-12T06:54:55.856Z,30.88
2023-10-12T06:57:29.590Z,40.10
2023-10-12T07:00:00.141Z,20.58
2023-10-12T07:02:29.553Z,17.87
2023-10-12T07:04:58.982Z,21.77
2023-10-12T07:07:29.564Z,18.38
2023-10-12T07:10:12.604Z,38.08
2023-10-12T07:12:51.596Z,58.08
2023-10-12T07:15:24.527Z,78.22
2023-10-12T07:17:53.014Z,83.20
2023-10-12T07:20:35.012Z,105.93
2023-10-12T07:23:16.082Z,78.53
2023-10-12T07:25:50.008Z,52.58
2023-10-12T07:28:20.106Z,80.43
2023-10-12T07:31:06.801Z,44.60
2023-10-12T07:33:34.841Z,51.17
2023-10-12T07:36:11.297Z,29.98
2023-10-12T07:38:38.971Z,32.92
2023-10-12T07:41:06.572Z,42.85
2023-10-12T07:43:34.217Z,29.30
2023-10-12T07:46:15.771Z,21.85
2023-10-12T07:51:17.125Z,31.08
2023-10-12T07:56:31.377Z,22.65
2023-10-12T07:58:59.084Z,18.02
2023-10-12T08:01:27.642Z,21.77
2023-10-12T08:04:00.264Z,19.55
2023-10-12T08:06:38.062Z,26.25
2023-10-12T08:09:26.072Z,19.50
2023-10-12T08:11:56.727Z,22.23
2023-10-12T08:14:24.339Z,18.60
2023-10-12T08:17:14.491Z,19.05
2023-10-12T08:19:44.911Z,19.35
2023-10-12T08:22:31.349Z,21.05
2023-10-12T08:25:05.850Z,18.92
2023-10-12T08:27:44.865Z,18.17
2023-10-12T08:30:23.239Z,21.48
2023-10-12T08:33:01.311Z,17.42
2023-10-12T08:35:40.478Z,18.00
2023-10-12T08:38:13.110Z,19.38
2023-10-12T08:41:01.976Z,17.90
2023-10-12T08:43:47.003Z,17.60
2023-10-12T08:46:21.754Z,15.98
2023-10-12T08:48:55.432Z,18.63
2023-10-12T08:51:31.310Z,19.58
2023-10-12T08:54:05.704Z,15.68
2023-10-12T08:56:39.067Z,25.60
2023-10-12T08:59:09.549Z,16.13
2023-10-12T09:01:43.234Z,16.48
2023-10-12T09:04:13.901Z,17.08
2023-10-12T09:06:44.799Z,17.33
2023-10-12T09:09:31.636Z,14.85
2023-10-12T09:12:01.384Z,11.65
2023-10-12T09:14:33.281Z,12.85
2023-10-12T09:17:04.945Z,11.75
2023-10-12T09:19:33.786Z,16.80
2023-10-12T09:22:03.487Z,12.27
2023-10-12T09:24:37.933Z,13.93
2023-10-12T09:27:17.127Z,12.85
2023-10-12T09:30:00.805Z,12.68
2023-10-12T09:32:29.545Z,10.93
2023-10-12T09:34:57.339Z,15.32
2023-10-12T09:37:30.351Z,8.50
2023-10-12T09:39:59.918Z,8.32
2023-10-12T09:42:33.301Z,10.13
2023-10-12T09:45:21.250Z,9.15
2023-10-12T09:47:59.433Z,8.73
2023-10-12T09:50:34.295Z,10.48
2023-10-12T09:53:22.675Z,10.00
2023-10-12T09:56:26.716Z,10.57
2023-10-12T09:59:09.196Z,16.75
2023-10-12T10:01:40.835Z,13.68
2023-10-12T10:04:27.705Z,13.82
2023-10-12T10:07:18.878Z,11.20
2023-10-12T10:09:48.917Z,9.50
2023-10-12T10:12:22.196Z,11.95
2023-10-12T10:14:58.667Z,11.25
2023-10-12T10:17:38.005Z,11.40
2023-10-12T10:20:24.821Z,11.48
2023-10-12T10:23:00.537Z,14.27
2023-10-12T10:25:37.293Z,8.45
2023-10-12T10:28:10.693Z,8.98
2023-10-12T10:30:42.974Z,16.33
2023-10-12T10:33:16.752Z,10.75
2023-10-12T10:36:00.533Z,9.65
2023-10-12T10:38:33.724Z,12.40
2023-10-12T10:41:19.158Z,17.48
2023-10-12T10:43:47.555Z,8.88
2023-10-12T10:46:17.931Z,13.48
2023-10-12T10:51:33.605Z,12.07
2023-10-12T10:54:01.314Z,10.93
2023-10-12T10:56:36.025Z,9.93
2023-10-12T10:59:08.187Z,9.80
2023-10-12T11:01:36.093Z,8.27
2023-10-12T11:04:09.183Z,5.85
2023-10-12T11:06:38.599Z,5.68
2023-10-12T11:09:07.702Z,6.50
2023-10-12T11:11:39.241Z,11.57
2023-10-12T11:14:09.929Z,14.65
2023-10-12T11:16:38.542Z,11.07
2023-10-12T11:19:15.768Z,10.25
2023-10-12T11:21:48.020Z,8.52
2023-10-12T11:24:16.891Z,9.35
2023-10-12T11:26:52.892Z,6.43
2023-10-12T11:29:21.582Z,9.95
2023-10-12T11:32:10.210Z,11.57
2023-10-12T11:34:53.788Z,11.35
2023-10-12T11:37:22.136Z,10.70
2023-10-12T11:39:53.909Z,13.27
2023-10-12T11:42:22.157Z,17.55
2023-10-12T11:44:52.735Z,10.73
2023-10-12T11:47:29.061Z,10.02
2023-10-12T11:50:00.198Z,10.10
2023-10-12T11:52:36.970Z,8.57
2023-10-12T11:55:22.010Z,10.57
2023-10-12T11:57:58.451Z,9.30
2023-10-12T12:00:40.611Z,11.55
2023-10-12T12:03:11.938Z,8.70
2023-10-12T12:05:41.298Z,10.75
2023-10-12T12:08:15.575Z,11.13
2023-10-12T12:10:46.810Z,12.32
2023-10-12T12:15:45.262Z,10.23
2023-10-12T12:18:20.822Z,6.78
2023-10-12T12:20:58.290Z,10.55
2023-10-12T12:23:29.449Z,12.50
2023-10-12T12:26:02.979Z,11.60
2023-10-12T12:28:34.427Z,7.13
2023-10-12T12:31:02.399Z,14.90
2023-10-12T12:33:30.425Z,11.98
2023-10-12T12:36:11.362Z,10.55
2023-10-12T12:38:39.011Z,8.65
2023-10-12T12:41:07.193Z,8.32
2023-10-12T12:43:34.965Z,12.93
2023-10-12T12:46:02.772Z,8.48
2023-10-12T12:48:31.353Z,7.57
2023-10-12T12:51:01.152Z,8.32
2023-10-12T12:53:29.859Z,9.35
2023-10-12T12:55:58.207Z,8.00
2023-10-12T12:58:26.167Z,8.80
2023-10-12T13:00:54.034Z,9.55
2023-10-12T13:03:23.698Z,10.38
2023-10-12T13:05:51.485Z,11.18
2023-10-12T13:08:19.151Z,9.27
2023-10-12T13:10:47.066Z,11.50
2023-10-12T13:13:14.789Z,9.63
2023-10-12T13:15:42.965Z,8.25
2023-10-12T13:18:16.061Z,7.22
2023-10-12T13:20:48.232Z,11.75
2023-10-12T13:23:19.381Z,11.13
2023-10-12T13:25:47.006Z,7.95
2023-10-12T13:28:14.760Z,12.35
2023-10-12T13:30:42.477Z,14.15
2023-10-12T13:33:12.755Z,12.63
2023-10-12T13:35:41.848Z,10.10
2023-10-12T13:38:14.774Z,8.57
2023-10-12T13:40:51.356Z,9.35
2023-10-12T13:43:28.126Z,9.43
2023-10-12T13:45:57.004Z,9.60
2023-10-12T13:48:26.939Z,6.95
2023-10-12T13:51:01.570Z,11.98
2023-10-12T13:53:29.841Z,8.98
2023-10-12T13:56:02.236Z,9.80
2023-10-12T13:58:34.111Z,8.75
2023-10-12T14:01:03.920Z,10.07
2023-10-12T14:03:39.748Z,7.70
2023-10-12T14:06:08.392Z,11.60
2023-10-12T14:08:36.764Z,10.55
2023-10-12T14:11:05.120Z,10.50
2023-10-12T14:13:33.065Z,12.00
2023-10-12T14:16:01.725Z,13.07
2023-10-12T14:18:32.375Z,12.20
2023-10-12T14:21:00.276Z,9.10
2023-10-12T14:23:28.177Z,11.05
2023-10-12T14:25:58.548Z,12.90
2023-10-12T14:28:32.978Z,16.30
2023-10-12T14:31:01.512Z,9.23
2023-10-12T14:33:31.685Z,12.52
2023-10-12T14:35:59.570Z,9.55
2023-10-12T14:38:28.516Z,10.40
2023-10-12T14:40:57.990Z,14.73
2023-10-12T14:43:26.900Z,11.40
2023-10-12T14:45:57.855Z,10.40
2023-10-12T14:48:27.601Z,13.63
2023-10-12T14:51:14.262Z,14.20
2023-10-12T14:53:42.974Z,9.65
2023-10-12T14:56:11.441Z,10.13
2023-10-12T14:58:39.896Z,6.85
2023-10-12T15:01:18.673Z,11.13
2023-10-12T15:03:46.587Z,10.00
2023-10-12T15:06:14.371Z,14.98
2023-10-12T15:08:42.550Z,11.75
2023-10-12T15:11:10.453Z,11.35
2023-10-12T15:13:42.681Z,8.95
2023-10-12T15:16:11.758Z,7.97
2023-10-12T15:18:43.766Z,14.30
2023-10-12T15:21:29.228Z,16.15
2023-10-12T15:23:59.221Z,11.25
2023-10-12T15:26:27.414Z,8.70
2023-10-12T15:28:56.134Z,10.23
2023-10-12T15:31:28.639Z,8.90
2023-10-12T15:33:57.486Z,15.15
2023-10-12T15:36:25.710Z,9.82
2023-10-12T15:38:53.952Z,12.73
2023-10-12T15:41:22.861Z,13.50
2023-10-12T15:43:53.126Z,12.65
2023-10-12T15:46:21.200Z,11.63
2023-10-12T15:48:49.003Z,9.50
2023-10-12T15:51:18.087Z,13.70
2023-10-12T15:53:45.763Z,8.82
2023-10-12T15:56:17.316Z,10.63
2023-10-12T15:58:54.852Z,13.88
2023-10-12T16:01:22.610Z,8.98
2023-10-12T16:03:50.328Z,8.82
2023-10-12T16:06:18.340Z,8.23
2023-10-12T16:08:46.276Z,9.70
2023-10-12T16:11:20.792Z,10.65
2023-10-12T16:13:48.538Z,13.23
2023-10-12T16:16:16.358Z,9.35
2023-10-12T16:18:44.641Z,13.32
2023-10-12T16:21:18.049Z,9.45
2023-10-12T16:23:47.620Z,11.75
2023-10-12T16:26:16.866Z,12.73
2023-10-12T16:28:49.184Z,15.18
2023-10-12T16:31:17.466Z,9.70
2023-10-12T16:33:46.439Z,13.25
2023-10-12T16:36:15.973Z,11.27
2023-10-12T16:38:45.343Z,12.13
2023-10-12T16:41:16.377Z,9.02
2023-10-12T16:43:49.141Z,6.32
2023-10-12T16:46:18.688Z,15.93
2023-10-12T16:48:46.637Z,14.45
2023-10-12T16:51:16.163Z,12.70
2023-10-12T16:53:44.417Z,13.82
2023-10-12T16:56:14.368Z,9.10
2023-10-12T16:58:42.727Z,12.95
2023-10-12T17:01:12.684Z,10.15
2023-10-12T17:03:41.319Z,9.38
2023-10-12T17:06:09.341Z,9.63
2023-10-12T17:08:37.371Z,9.18
2023-10-12T17:11:06.735Z,11.55
2023-10-12T17:13:35.236Z,10.93
2023-10-12T17:16:03.943Z,15.68
2023-10-12T17:18:36.349Z,10.32
2023-10-12T17:21:04.446Z,7.85
2023-10-12T17:23:32.802Z,11.15
2023-10-12T17:26:01.008Z,6.78
2023-10-12T17:28:32.462Z,11.05
2023-10-12T17:31:08.297Z,8.90
2023-10-12T17:33:40.038Z,8.40
2023-10-12T17:36:16.034Z,12.30
2023-10-12T17:38:48.850Z,10.30
2023-10-12T17:41:23.000Z,11.55
2023-10-12T17:43:53.037Z,14.38
2023-10-12T17:46:22.705Z,17.65
2023-10-12T17:48:55.019Z,11.35
2023-10-12T17:51:23.664Z,17.13
2023-10-12T17:53:51.909Z,12.43
2023-10-12T17:56:21.139Z,13.35
2023-10-12T17:58:48.810Z,15.50
2023-10-12T18:01:16.629Z,14.32
2023-10-12T18:03:44.536Z,17.38
2023-10-12T18:06:13.545Z,12.85
2023-10-12T18:08:42.388Z,14.90
2023-10-12T18:11:17.213Z,12.82
2023-10-12T18:13:45.654Z,10.35
2023-10-12T18:16:16.011Z,12.57
2023-10-12T18:18:45.085Z,12.90
2023-10-12T18:21:13.602Z,11.73
2023-10-12T18:23:42.180Z,12.90
2023-10-12T18:26:16.887Z,12.23
2023-10-12T18:28:44.752Z,11.80
2023-10-12T18:31:12.936Z,16.08
2023-10-12T18:33:42.694Z,10.35
2023-10-12T18:36:12.358Z,14.05
2023-10-12T18:38:44.568Z,9.63
2023-10-12T18:41:17.809Z,14.05
2023-10-12T18:43:52.660Z,13.82
2023-10-12T18:46:25.704Z,15.82
2023-10-12T18:48:53.738Z,11.85
2023-10-12T18:51:25.296Z,13.18
2023-10-12T18:53:53.756Z,12.57
2023-10-12T18:56:22.349Z,16.77
2023-10-12T18:58:51.166Z,13.90
2023-10-12T19:01:19.934Z,12.88
2023-10-12T19:03:48.287Z,13.32
2023-10-12T19:06:16.289Z,13.40
2023-10-12T19:08:47.153Z,16.75
2023-10-12T19:11:14.840Z,13.15
2023-10-12T19:13:47.595Z,17.30
2023-10-12T19:16:19.529Z,15.77
2023-10-12T19:18:54.472Z,16.38
2023-10-12T19:21:23.293Z,19.63
2023-10-12T19:23:51.543Z,14.23
2023-10-12T19:26:19.775Z,17.85
2023-10-12T19:28:48.136Z,19.35
2023-10-12T19:31:20.274Z,20.77
2023-10-12T19:33:56.519Z,16.05
2023-10-12T19:36:24.813Z,13.73
2023-10-12T19:38:52.499Z,16.17
2023-10-12T19:41:20.148Z,15.40
2023-10-12T19:43:48.137Z,15.27
2023-10-12T19:46:16.306Z,17.70
2023-10-12T19:48:46.285Z,14.85
2023-10-12T19:51:17.398Z,16.92
2023-10-12T19:53:48.013Z,14.05
2023-10-12T19:56:17.712Z,17.02
2023-10-12T19:58:46.471Z,16.60
2023-10-12T20:01:18.902Z,16.27
2023-10-12T20:03:50.731Z,14.75
2023-10-12T20:06:20.892Z,14.38
2023-10-12T20:08:50.084Z,23.35
2023-10-12T20:11:19.425Z,17.67
2023-10-12T20:13:49.845Z,17.58
2023-10-12T20:16:27.427Z,19.02
2023-10-12T20:18:59.272Z,17.63
2023-10-12T20:21:27.538Z,18.67
2023-10-12T20:23:57.738Z,15.15
2023-10-12T20:26:27.358Z,18.10
2023-10-12T20:28:56.516Z,17.67
2023-10-12T20:31:24.701Z,17.48
2023-10-12T20:33:53.095Z,19.17
2023-10-12T20:36:25.179Z,20.35
2023-10-12T20:38:53.782Z,21.00
2023-10-12T20:41:24.027Z,18.80
2023-10-12T20:43:56.187Z,22.35
2023-10-12T20:46:23.982Z,22.23
2023-10-12T20:48:51.941Z,22.13
2023-10-12T20:51:20.345Z,16.67
2023-10-12T20:53:49.408Z,17.45
2023-10-12T20:56:37.529Z,17.98
2023-10-12T20:59:24.673Z,23.42
2023-10-12T21:02:13.992Z,22.02
2023-10-12T21:04:43.866Z,24.27
2023-10-12T21:07:12.334Z,26.70
2023-10-12T21:09:40.328Z,26.77
2023-10-12T21:12:22.914Z,24.20
2023-10-12T21:14:50.949Z,29.98
2023-10-12T21:17:33.722Z,27.15
2023-10-12T21:20:25.216Z,32.50
2023-10-12T21:22:56.244Z,26.20
2023-10-12T21:25:27.220Z,30.48
2023-10-12T21:27:56.375Z,32.13
2023-10-12T21:30:26.962Z,37.42
2023-10-12T21:32:54.933Z,34.67
2023-10-12T21:35:26.701Z,36.85
2023-10-12T21:37:55.038Z,32.40
2023-10-12T21:40:25.742Z,34.95
2023-10-12T21:42:53.791Z,37.95
2023-10-12T21:45:23.816Z,42.42
2023-10-12T21:47:54.452Z,38.85
2023-10-12T21:50:26.153Z,38.03
2023-10-12T21:55:21.857Z,36.78
2023-10-12T21:57:49.976Z,37.40
2023-10-12T22:00:33.701Z,35.42
2023-10-12T22:03:02.083Z,33.63
2023-10-12T22:05:30.620Z,31.42
2023-10-12T22:07:59.070Z,32.17
2023-10-12T22:10:30.824Z,27.77
2023-10-12T22:13:05.983Z,33.00
2023-10-12T22:15:53.020Z,41.58
2023-10-12T22:18:22.604Z,33.10
2023-10-12T22:20:58.725Z,33.38
2023-10-12T22:23:27.063Z,30.67
2023-10-12T22:25:54.787Z,32.35
2023-10-12T22:28:23.129Z,33.47
2023-10-12T22:30:54.540Z,34.20
2023-10-12T22:33:22.396Z,36.97
2023-10-12T22:36:00.377Z,31.63
2023-10-12T22:38:29.489Z,41.53
2023-10-12T22:41:05.825Z,46.70
2023-10-12T22:43:33.908Z,45.42
2023-10-12T22:46:02.393Z,45.28
2023-10-12T22:48:30.119Z,48.97
2023-10-12T22:50:57.700Z,43.85
2023-10-12T22:53:25.377Z,44.60
2023-10-12T22:55:52.919Z,39.90
2023-10-12T22:58:22.148Z,49.53
2023-10-12T23:00:51.081Z,50.75
2023-10-12T23:03:18.935Z,47.72
2023-10-12T23:05:46.605Z,51.88
2023-10-12T23:08:14.875Z,49.35
2023-10-12T23:10:43.307Z,44.78
2023-10-12T23:13:11.078Z,45.72
2023-10-12T23:15:44.721Z,45.63
2023-10-12T23:18:12.828Z,50.78
2023-10-12T23:20:45.853Z,44.28
2023-10-12T23:23:16.010Z,46.33
2023-10-12T23:25:45.662Z,55.70
2023-10-12T23:28:20.492Z,40.78
2023-10-12T23:31:06.148Z,39.05
2023-10-12T23:33:35.112Z,43.75
2023-10-12T23:36:02.774Z,47.92
2023-10-12T23:38:48.616Z,42.88
2023-10-12T23:41:16.241Z,45.28
2023-10-12T23:43:54.186Z,38.70
2023-10-12T23:46:26.356Z,44.65
2023-10-12T23:48:57.780Z,49.90
2023-10-12T23:51:29.530Z,39.40
2023-10-12T23:53:57.807Z,47.60
2023-10-12T23:56:28.750Z,46.00
2023-10-12T23:58:57.515Z,48.03
